Time;durP1;ratioP1;P1;durP2;ratioP2;P2;SDS_P1;SDS_P2;PMS_P1;PMS_P2;Temp;Humidity;BMP_temperature;BMP_pressure;BME280_temperature;BME280_humidity;BME280_pressure;Samples;Min_cycle;Max_cycle;Signal;HPM_P1;HPM_P2
2021/04/30 00:02:16;;;;;;;1.8;0.7;;;;;;;;;;;;;
2021/04/30 00:04:41;;;;;;;1.6;0.7;;;;;;;;;;;;;
2021/04/30 00:07:07;;;;;;;1;0.5;;;;;;;;;;;;;
2021/04/30 00:09:32;;;;;;;1.4;0.7;;;;;;;;;;;;;
2021/04/30 00:11:58;;;;;;;1.3;1;;;;;;;;;;;;;
2021/04/30 00:14:23;;;;;;;0.4;0.4;;;;;;;;;;;;;
2021/04/30 00:16:53;;;;;;;1.7;1;;;;;;;;;;;;;
2021/04/30 00:19:21;;;;;;;0.7;0.5;;;;;;;;;;;;;
2021/04/30 00:21:46;;;;;;;0.6;0.6;;;;;;;;;;;;;
2021/04/30 00:24:12;;;;;;;0.6;0.6;;;;;;;;;;;;;
2021/04/30 00:26:36;;;;;;;4;0.4;;;;;;;;;;;;;
2021/04/30 00:29:02;;;;;;;0.8;0.6;;;;;;;;;;;;;
2021/04/30 00:31:27;;;;;;;0.5;0.5;;;;;;;;;;;;;
2021/04/30 00:33:53;;;;;;;0.6;0.4;;;;;;;;;;;;;
2021/04/30 00:36:18;;;;;;;0.5;0.5;;;;;;;;;;;;;
2021/04/30 00:38:44;;;;;;;0.6;0.5;;;;;;;;;;;;;
2021/04/30 00:41:09;;;;;;;0.6;0.6;;;;;;;;;;;;;
2021/04/30 00:43:34;;;;;;;1;0.5;;;;;;;;;;;;;
2021/04/30 00:46:00;;;;;;;0.7;0.4;;;;;;;;;;;;;
2021/04/30 00:51:00;;;;;;;0.6;0.4;;;;;;;;;;;;;
2021/04/30 00:53:25;;;;;;;1.8;0.5;;;;;;;;;;;;;
2021/04/30 00:55:51;;;;;;;0.4;0.4;;;;;;;;;;;;;
2021/04/30 00:58:16;;;;;;;1.4;0.7;;;;;;;;;;;;;
2021/04/30 01:00:41;;;;;;;0.5;0.5;;;;;;;;;;;;;
2021/04/30 01:03:06;;;;;;;0.5;0.5;;;;;;;;;;;;;
2021/04/30 01:05:31;;;;;;;0.7;0.6;;;;;;;;;;;;;
2021/04/30 01:07:56;;;;;;;1.5;0.8;;;;;;;;;;;;;
2021/04/30 01:10:22;;;;;;;1.6;1;;;;;;;;;;;;;
2021/04/30 01:12:48;;;;;;;0.7;0.6;;;;;;;;;;;;;
2021/04/30 01:15:13;;;;;;;0.8;0.8;;;;;;;;;;;;;
2021/04/30 01:17:38;;;;;;;1;0.7;;;;;;;;;;;;;
2021/04/30 01:20:07;;;;;;;0.6;0.6;;;;;;;;;;;;;
2021/04/30 01:22:33;;;;;;;1.2;0.6;;;;;;;;;;;;;
2021/04/30 01:24:58;;;;;;;0.6;0.5;;;;;;;;;;;;;
2021/04/30 01:27:23;;;;;;;0.4;0.4;;;;;;;;;;;;;
2021/04/30 01:29:48;;;;;;;0.5;0.4;;;;;;;;;;;;;
2021/04/30 01:32:13;;;;;;;0.6;0.6;;;;;;;;;;;;;
2021/04/30 01:34:38;;;;;;;1.2;0.7;;;;;;;;;;;;;
2021/04/30 01:37:15;;;;;;;0.7;0.5;;;;;;;;;;;;;
2021/04/30 01:39:41;;;;;;;0.8;0.8;;;;;;;;;;;;;
2021/04/30 01:42:06;;;;;;;1.3;0.5;;;;;;;;;;;;;
2021/04/30 01:44:31;;;;;;;1.8;0.4;;;;;;;;;;;;;
2021/04/30 01:46:56;;;;;;;0.5;0.5;;;;;;;;;;;;;
2021/04/30 01:49:22;;;;;;;1.6;0.5;;;;;;;;;;;;;
2021/04/30 01:51:47;;;;;;;0.5;0.5;;;;;;;;;;;;;
2021/04/30 01:54:13;;;;;;;0.9;0.6;;;;;;;;;;;;;
2021/04/30 01:56:37;;;;;;;0.7;0.7;;;;;;;;;;;;;
2021/04/30 01:59:04;;;;;;;0.7;0.5;;;;;;;;;;;;;
2021/04/30 02:01:28;;;;;;;0.5;0.4;;;;;;;;;;;;;
2021/04/30 02:03:55;;;;;;;0.5;0.4;;;;;;;;;;;;;
2021/04/30 02:06:22;;;;;;;1.3;0.5;;;;;;;;;;;;;
2021/04/30 02:08:48;;;;;;;0.9;0.6;;;;;;;;;;;;;
2021/04/30 02:11:14;;;;;;;0.7;0.5;;;;;;;;;;;;;
2021/04/30 02:13:39;;;;;;;0.8;0.6;;;;;;;;;;;;;
2021/04/30 02:16:14;;;;;;;1.3;0.4;;;;;;;;;;;;;
2021/04/30 02:18:42;;;;;;;0.3;0.3;;;;;;;;;;;;;
2021/04/30 02:21:13;;;;;;;0.3;0.3;;;;;;;;;;;;;
2021/04/30 02:23:42;;;;;;;0.3;0.3;;;;;;;;;;;;;
2021/04/30 02:26:07;;;;;;;0.4;0.4;;;;;;;;;;;;;
2021/04/30 02:28:32;;;;;;;0.9;0.5;;;;;;;;;;;;;
2021/04/30 02:30:57;;;;;;;0.3;0.3;;;;;;;;;;;;;
2021/04/30 02:33:23;;;;;;;0.4;0.4;;;;;;;;;;;;;
2021/04/30 02:35:48;;;;;;;0.3;0.3;;;;;;;;;;;;;
2021/04/30 02:38:18;;;;;;;0.2;0.2;;;;;;;;;;;;;
2021/04/30 02:40:44;;;;;;;1;0.5;;;;;;;;;;;;;
2021/04/30 02:43:10;;;;;;;0.7;0.5;;;;;;;;;;;;;
2021/04/30 02:45:37;;;;;;;0.6;0.6;;;;;;;;;;;;;
2021/04/30 02:48:10;;;;;;;0.3;0.3;;;;;;;;;;;;;
2021/04/30 02:50:30;;;;;;;1;0.6;;;;;;;;;;;;;
2021/04/30 02:52:56;;;;;;;0.4;0.4;;;;;;;;;;;;;
2021/04/30 02:55:21;;;;;;;0.2;0.2;;;;;;;;;;;;;
2021/04/30 02:57:47;;;;;;;0.2;0.2;;;;;;;;;;;;;
2021/04/30 03:00:12;;;;;;;0.6;0.4;;;;;;;;;;;;;
2021/04/30 03:02:38;;;;;;;0.4;0.4;;;;;;;;;;;;;
2021/04/30 03:05:03;;;;;;;0.3;0.3;;;;;;;;;;;;;
2021/04/30 03:07:30;;;;;;;0.8;0.4;;;;;;;;;;;;;
2021/04/30 03:09:55;;;;;;;0.4;0.2;;;;;;;;;;;;;
2021/04/30 03:12:21;;;;;;;0.2;0.2;;;;;;;;;;;;;
2021/04/30 03:14:46;;;;;;;0.3;0.3;;;;;;;;;;;;;
2021/04/30 03:17:11;;;;;;;0.5;0.4;;;;;;;;;;;;;
2021/04/30 03:19:37;;;;;;;0.5;0.5;;;;;;;;;;;;;
2021/04/30 03:22:02;;;;;;;1;0.6;;;;;;;;;;;;;
2021/04/30 03:24:27;;;;;;;0.6;0.6;;;;;;;;;;;;;
2021/04/30 03:26:52;;;;;;;0.5;0.5;;;;;;;;;;;;;
2021/04/30 03:29:18;;;;;;;1;0.5;;;;;;;;;;;;;
2021/04/30 03:31:43;;;;;;;0.6;0.5;;;;;;;;;;;;;
2021/04/30 03:34:10;;;;;;;0.6;0.6;;;;;;;;;;;;;
2021/04/30 03:36:34;;;;;;;1.5;0.8;;;;;;;;;;;;;
2021/04/30 03:39:01;;;;;;;9.1;5.4;;;;;;;;;;;;;
2021/04/30 03:41:24;;;;;;;0.4;0.3;;;;;;;;;;;;;
2021/04/30 03:43:50;;;;;;;0.5;0.4;;;;;;;;;;;;;
2021/04/30 03:46:15;;;;;;;0.5;0.4;;;;;;;;;;;;;
2021/04/30 03:48:41;;;;;;;0.5;0.5;;;;;;;;;;;;;
2021/04/30 03:51:07;;;;;;;1.8;1.2;;;;;;;;;;;;;
2021/04/30 03:53:32;;;;;;;2.1;1.5;;;;;;;;;;;;;
2021/04/30 03:55:57;;;;;;;1.1;1;;;;;;;;;;;;;
2021/04/30 03:58:24;;;;;;;5;1.3;;;;;;;;;;;;;
2021/04/30 04:02:27;;;;;;;1.1;0.7;;;;;;;9.46;89.47363;931.8958;;;;
2021/04/30 04:04:53;;;;;;;1;0.6;;;;;;;9.33;89.53613;931.8688;;;;
2021/04/30 04:07:19;;;;;;;0.5;0.5;;;;;;;9.25;89.86328;931.8217;;;;
2021/04/30 04:09:44;;;;;;;0.5;0.4;;;;;;;9.17;90.16309;931.7813;;;;
2021/04/30 04:12:13;;;;;;;0.4;0.4;;;;;;;8.97;90.85156;931.8588;;;;
2021/04/30 04:14:40;;;;;;;0.6;0.6;;;;;;;8.91;91.22461;931.9172;;;;
2021/04/30 04:17:16;;;;;;;3.1;2;;;;;;;9.03;91.18359;931.8823;;;;
2021/04/30 04:19:39;;;;;;;5.6;1.8;;;;;;;9.15;90.8916;931.8734;;;;
2021/04/30 04:22:05;;;;;;;0.9;0.8;;;;;;;9.12;90.48535;931.8542;;;;
2021/04/30 04:24:31;;;;;;;0.8;0.6;;;;;;;9.1;90.30859;931.8367;;;;
2021/04/30 04:26:58;;;;;;;0.6;0.6;;;;;;;9.08;90.89648;931.8262;;;;
2021/04/30 04:29:24;;;;;;;0.7;0.7;;;;;;;9.13;90.6123;931.8272;;;;
2021/04/30 04:31:50;;;;;;;0.5;0.4;;;;;;;9.17;90.47168;931.8273;;;;
2021/04/30 04:34:15;;;;;;;0.7;0.7;;;;;;;9.21;90.33398;931.7537;;;;
2021/04/30 04:36:43;;;;;;;0.6;0.6;;;;;;;9.36;90.48926;931.8657;;;;
2021/04/30 04:39:08;;;;;;;12;0.5;;;;;;;9.44;89.95996;931.8353;;;;
2021/04/30 04:41:36;;;;;;;0.7;0.5;;;;;;;9.45;89.17773;931.8767;;;;
2021/04/30 04:44:01;;;;;;;0.7;0.6;;;;;;;9.53;88.78223;931.9111;;;;
2021/04/30 04:46:28;;;;;;;0.8;0.7;;;;;;;9.49;88.83008;931.8982;;;;
2021/04/30 04:48:53;;;;;;;1.3;0.6;;;;;;;9.64;88.56543;931.9522;;;;
2021/04/30 04:51:19;;;;;;;0.6;0.6;;;;;;;9.6;88.48926;931.8986;;;;
2021/04/30 04:53:44;;;;;;;0.7;0.7;;;;;;;9.61;88.30859;931.8484;;;;
2021/04/30 04:56:10;;;;;;;0.6;0.6;;;;;;;9.71;88.0459;931.9111;;;;
2021/04/30 04:58:35;;;;;;;3.1;0.8;;;;;;;9.92;87.8584;931.9021;;;;
2021/04/30 05:01:02;;;;;;;1.1;0.7;;;;;;;10.09;86.17188;931.944;;;;
2021/04/30 05:03:27;;;;;;;0.8;0.8;;;;;;;10.12;86.17676;932.0427;;;;
2021/04/30 05:05:56;;;;;;;0.8;0.7;;;;;;;10.3;85.88184;932.1071;;;;
2021/04/30 05:08:22;;;;;;;1.4;0.8;;;;;;;10.33;85.00879;932.1229;;;;
2021/04/30 05:10:53;;;;;;;0.8;0.7;;;;;;;10.34;84.9668;932.193;;;;
2021/04/30 05:13:22;;;;;;;1.1;0.7;;;;;;;9.92;85.90918;932.0739;;;;
2021/04/30 05:16:05;;;;;;;0.5;0.5;;;;;;;9.46;88.32324;932.1827;;;;
2021/04/30 05:18:33;;;;;;;1.5;0.6;;;;;;;9.28;89.87012;932.1824;;;;
2021/04/30 05:21:06;;;;;;;1.1;0.6;;;;;;;9.25;90.05664;932.2133;;;;
2021/04/30 05:23:35;;;;;;;0.5;0.5;;;;;;;9.33;90.0625;932.1881;;;;
2021/04/30 05:26:07;;;;;;;0.6;0.5;;;;;;;9.39;89.75488;932.2377;;;;
2021/04/30 05:28:36;;;;;;;1.7;0.8;;;;;;;9.45;90.21191;932.2494;;;;
2021/04/30 05:31:01;;;;;;;0.9;0.7;;;;;;;9.57;89.24512;932.2188;;;;
2021/04/30 05:33:32;;;;;;;1;0.8;;;;;;;9.71;88.38477;932.2441;;;;
2021/04/30 05:36:02;;;;;;;0.9;0.7;;;;;;;9.82;88.30566;932.2566;;;;
2021/04/30 05:38:32;;;;;;;1;0.5;;;;;;;9.9;88.05859;932.2155;;;;
2021/04/30 05:40:57;;;;;;;0.6;0.6;;;;;;;9.73;87.80859;932.1917;;;;
2021/04/30 05:43:23;;;;;;;0.3;0.3;;;;;;;9.87;88.08887;932.2305;;;;
2021/04/30 05:45:48;;;;;;;0.7;0.6;;;;;;;9.78;87.85254;932.1965;;;;
2021/04/30 05:48:15;;;;;;;0.8;0.6;;;;;;;9.67;87.5;932.2369;;;;
2021/04/30 05:50:40;;;;;;;0.5;0.5;;;;;;;9.72;88.19434;932.1663;;;;
2021/04/30 05:53:05;;;;;;;0.5;0.5;;;;;;;9.75;85.90918;932.1043;;;;
2021/04/30 05:55:32;;;;;;;1.1;0.5;;;;;;;9.97;86.12305;932.0525;;;;
2021/04/30 05:57:58;;;;;;;0.5;0.3;;;;;;;10.11;84.81738;932.1636;;;;
2021/04/30 06:00:24;;;;;;;0.5;0.4;;;;;;;10.25;84.66211;932.1158;;;;
2021/04/30 06:02:50;;;;;;;1.8;0.7;;;;;;;10.24;84.22852;932.2001;;;;
2021/04/30 06:05:16;;;;;;;0.9;0.6;;;;;;;;;;;;;
2021/04/30 06:07:40;;;;;;;0.9;0.5;;;;;;;;;;;;;
2021/04/30 06:10:05;;;;;;;1.3;0.8;;;;;;;;;;;;;
2021/04/30 06:12:32;;;;;;;0.4;0.4;;;;;;;;;;;;;
2021/04/30 06:14:57;;;;;;;0.8;0.6;;;;;;;;;;;;;
2021/04/30 06:17:26;;;;;;;0.8;0.7;;;;;;;;;;;;;
2021/04/30 06:19:51;;;;;;;0.4;0.3;;;;;;;;;;;;;
2021/04/30 06:22:16;;;;;;;0.3;0.3;;;;;;;;;;;;;
2021/04/30 06:24:41;;;;;;;0.3;0.3;;;;;;;;;;;;;
2021/04/30 06:27:08;;;;;;;0.5;0.4;;;;;;;;;;;;;
2021/04/30 06:29:33;;;;;;;0.5;0.5;;;;;;;;;;;;;
2021/04/30 06:31:58;;;;;;;0.5;0.5;;;;;;;;;;;;;
2021/04/30 06:34:24;;;;;;;0.5;0.4;;;;;;;;;;;;;
2021/04/30 06:36:50;;;;;;;0.6;0.5;;;;;;;;;;;;;
2021/04/30 06:39:15;;;;;;;1.5;0.6;;;;;;;;;;;;;
2021/04/30 06:41:41;;;;;;;1.4;0.5;;;;;;;;;;;;;
2021/04/30 06:44:06;;;;;;;0.6;0.4;;;;;;;;;;;;;
2021/04/30 06:46:34;;;;;;;0.2;0.2;;;;;;;;;;;;;
2021/04/30 06:48:59;;;;;;;0.2;0.2;;;;;;;;;;;;;
2021/04/30 06:51:24;;;;;;;0.1;0.1;;;;;;;;;;;;;
2021/04/30 06:53:49;;;;;;;0.1;0.1;;;;;;;;;;;;;
2021/04/30 06:56:15;;;;;;;0.2;0.1;;;;;;;;;;;;;
2021/04/30 06:58:41;;;;;;;0.1;0.1;;;;;;;;;;;;;
2021/04/30 07:01:09;;;;;;;0.1;0.1;;;;;;;;;;;;;
2021/04/30 07:03:32;;;;;;;0.6;0.4;;;;;;;;;;;;;
2021/04/30 07:05:57;;;;;;;0;0;;;;;;;;;;;;;
2021/04/30 07:08:22;;;;;;;0.2;0.2;;;;;;;;;;;;;
2021/04/30 07:10:48;;;;;;;0.2;0.1;;;;;;;;;;;;;
2021/04/30 07:13:13;;;;;;;0.1;0.1;;;;;;;;;;;;;
2021/04/30 07:15:48;;;;;;;0.3;0.2;;;;;;;;;;;;;
2021/04/30 07:18:15;;;;;;;0.5;0.1;;;;;;;;;;;;;
2021/04/30 07:20:40;;;;;;;0.3;0.1;;;;;;;;;;;;;
2021/04/30 07:23:06;;;;;;;0.3;0.2;;;;;;;;;;;;;
2021/04/30 07:25:31;;;;;;;0.1;0.1;;;;;;;;;;;;;
2021/04/30 07:27:57;;;;;;;0;0;;;;;;;;;;;;;
2021/04/30 07:30:22;;;;;;;0;0;;;;;;;;;;;;;
2021/04/30 07:32:48;;;;;;;0.1;0.1;;;;;;;;;;;;;
2021/04/30 07:35:13;;;;;;;1.4;0.3;;;;;;;;;;;;;
2021/04/30 07:37:38;;;;;;;0.7;0.2;;;;;;;;;;;;;
2021/04/30 07:40:03;;;;;;;2.4;0.2;;;;;;;;;;;;;
2021/04/30 07:42:29;;;;;;;1.1;0.1;;;;;;;;;;;;;
2021/04/30 07:44:54;;;;;;;0.1;0.1;;;;;;;;;;;;;
2021/04/30 07:47:20;;;;;;;0.3;0.1;;;;;;;;;;;;;
2021/04/30 07:49:45;;;;;;;1.3;0.6;;;;;;;;;;;;;
2021/04/30 07:52:11;;;;;;;0.7;0.3;;;;;;;;;;;;;
2021/04/30 07:54:36;;;;;;;0.1;0.1;;;;;;;;;;;;;
2021/04/30 07:57:04;;;;;;;0.1;0.1;;;;;;;;;;;;;
2021/04/30 07:59:27;;;;;;;0;0;;;;;;;;;;;;;
2021/04/30 08:01:54;;;;;;;1.7;0.1;;;;;;;;;;;;;
2021/04/30 08:04:19;;;;;;;0.4;0.2;;;;;;;;;;;;;
2021/04/30 08:06:45;;;;;;;3.2;0.5;;;;;;;;;;;;;
2021/04/30 08:09:10;;;;;;;5.6;0.2;;;;;;;;;;;;;
2021/04/30 08:11:38;;;;;;;0;0;;;;;;;;;;;;;
2021/04/30 08:14:03;;;;;;;0.1;0;;;;;;;;;;;;;
2021/04/30 08:16:34;;;;;;;0.1;0;;;;;;;;;;;;;
2021/04/30 08:19:01;;;;;;;0.5;0.2;;;;;;;;;;;;;
2021/04/30 08:21:25;;;;;;;0;0;;;;;;;;;;;;;
2021/04/30 08:23:51;;;;;;;0.2;0.1;;;;;;;;;;;;;
2021/04/30 08:26:16;;;;;;;0;0;;;;;;;;;;;;;
2021/04/30 08:28:42;;;;;;;0;0;;;;;;;;;;;;;
2021/04/30 08:31:07;;;;;;;1.4;0.8;;;;;;;;;;;;;
2021/04/30 08:33:33;;;;;;;0;0;;;;;;;;;;;;;
2021/04/30 08:35:58;;;;;;;0.2;0.2;;;;;;;;;;;;;
2021/04/30 08:38:23;;;;;;;1.4;0.4;;;;;;;;;;;;;
2021/04/30 08:40:48;;;;;;;1;0.3;;;;;;;;;;;;;
2021/04/30 08:43:15;;;;;;;1.2;0.3;;;;;;;;;;;;;
2021/04/30 08:45:41;;;;;;;0;0;;;;;;;;;;;;;
2021/04/30 08:48:07;;;;;;;0.1;0.1;;;;;;;;;;;;;
2021/04/30 08:50:32;;;;;;;0.7;0.2;;;;;;;;;;;;;
2021/04/30 08:52:57;;;;;;;0.4;0.2;;;;;;;;;;;;;
2021/04/30 08:55:24;;;;;;;5;0.4;;;;;;;;;;;;;
2021/04/30 08:57:52;;;;;;;0.2;0.1;;;;;;;;;;;;;
2021/04/30 09:00:13;;;;;;;0.8;0.3;;;;;;;;;;;;;
2021/04/30 09:02:39;;;;;;;0.4;0.3;;;;;;;;;;;;;
2021/04/30 09:05:04;;;;;;;0.2;0.1;;;;;;;;;;;;;
2021/04/30 09:07:31;;;;;;;0.1;0.1;;;;;;;;;;;;;
2021/04/30 09:09:55;;;;;;;3.9;0.2;;;;;;;;;;;;;
2021/04/30 09:12:20;;;;;;;0.3;0.2;;;;;;;;;;;;;
2021/04/30 09:14:45;;;;;;;0.2;0.1;;;;;;;;;;;;;
2021/04/30 09:17:15;;;;;;;3.5;0.2;;;;;;;;;;;;;
2021/04/30 09:19:46;;;;;;;0.9;0.6;;;;;;;;;;;;;
2021/04/30 09:22:07;;;;;;;1.4;0.8;;;;;;;;;;;;;
2021/04/30 09:24:33;;;;;;;1.5;0.1;;;;;;;;;;;;;
2021/04/30 09:26:58;;;;;;;0.3;0.3;;;;;;;;;;;;;
2021/04/30 09:29:24;;;;;;;0.2;0.2;;;;;;;;;;;;;
2021/04/30 09:31:49;;;;;;;0.1;0.1;;;;;;;;;;;;;
2021/04/30 09:34:17;;;;;;;0.8;0.4;;;;;;;;;;;;;
2021/04/30 09:36:42;;;;;;;0.1;0.1;;;;;;;;;;;;;
2021/04/30 09:39:07;;;;;;;0.2;0.2;;;;;;;;;;;;;
2021/04/30 09:41:32;;;;;;;1;0.3;;;;;;;;;;;;;
2021/04/30 09:43:57;;;;;;;0;0;;;;;;;;;;;;;
2021/04/30 09:46:22;;;;;;;0.1;0.1;;;;;;;;;;;;;
2021/04/30 09:48:47;;;;;;;0.2;0.2;;;;;;;;;;;;;
2021/04/30 09:51:13;;;;;;;0;0;;;;;;;;;;;;;
2021/04/30 09:53:38;;;;;;;0.1;0.1;;;;;;;;;;;;;
2021/04/30 09:56:04;;;;;;;0.2;0.1;;;;;;;;;;;;;
2021/04/30 09:58:29;;;;;;;0.2;0.1;;;;;;;;;;;;;
2021/04/30 10:00:57;;;;;;;0;0;;;;;;;;;;;;;
2021/04/30 10:03:23;;;;;;;1.3;0.1;;;;;;;;;;;;;
2021/04/30 10:05:47;;;;;;;0.1;0.1;;;;;;;;;;;;;
2021/04/30 10:08:12;;;;;;;0.1;0;;;;;;;;;;;;;
2021/04/30 10:10:37;;;;;;;1.8;0.2;;;;;;;;;;;;;
2021/04/30 10:13:03;;;;;;;0.1;0.1;;;;;;;;;;;;;
2021/04/30 10:15:39;;;;;;;0.1;0;;;;;;;;;;;;;
2021/04/30 10:18:07;;;;;;;0.8;0.3;;;;;;;;;;;;;
2021/04/30 10:20:32;;;;;;;7.8;3.8;;;;;;;;;;;;;
2021/04/30 10:22:59;;;;;;;2.8;2.1;;;;;;;;;;;;;
2021/04/30 10:25:22;;;;;;;22.3;11.1;;;;;;;;;;;;;
2021/04/30 10:27:47;;;;;;;0.2;0.1;;;;;;;;;;;;;
2021/04/30 10:30:12;;;;;;;11.8;3.1;;;;;;;;;;;;;
2021/04/30 10:32:39;;;;;;;0.8;0.4;;;;;;;;;;;;;
2021/04/30 10:35:05;;;;;;;0.1;0.1;;;;;;;;;;;;;
2021/04/30 10:37:31;;;;;;;0.1;0.1;;;;;;;;;;;;;
2021/04/30 10:39:55;;;;;;;0.1;0;;;;;;;;;;;;;
2021/04/30 10:42:22;;;;;;;1.4;0.9;;;;;;;;;;;;;
2021/04/30 10:44:57;;;;;;;0.4;0.2;;;;;;;;;;;;;
2021/04/30 10:47:24;;;;;;;0.3;0.2;;;;;;;;;;;;;
2021/04/30 10:49:48;;;;;;;0.1;0.1;;;;;;;;;;;;;
2021/04/30 10:52:16;;;;;;;0.2;0.1;;;;;;;;;;;;;
2021/04/30 10:54:38;;;;;;;0.2;0.2;;;;;;;;;;;;;
2021/04/30 10:57:05;;;;;;;0.2;0.1;;;;;;;;;;;;;
2021/04/30 10:59:30;;;;;;;0.9;0.2;;;;;;;;;;;;;
2021/04/30 11:02:02;;;;;;;0.3;0.3;;;;;;;;;;;;;
2021/04/30 11:04:20;;;;;;;0.4;0.3;;;;;;;;;;;;;
2021/04/30 11:06:45;;;;;;;0.6;0.2;;;;;;;;;;;;;
2021/04/30 11:09:10;;;;;;;0.1;0.1;;;;;;;;;;;;;
2021/04/30 11:11:35;;;;;;;0.2;0.1;;;;;;;;;;;;;
2021/04/30 11:14:00;;;;;;;0.1;0.1;;;;;;;;;;;;;
2021/04/30 11:16:31;;;;;;;2.4;0.1;;;;;;;;;;;;;
2021/04/30 11:18:56;;;;;;;0;0;;;;;;;;;;;;;
2021/04/30 11:21:21;;;;;;;0.2;0.1;;;;;;;;;;;;;
2021/04/30 11:23:50;;;;;;;0;0;;;;;;;;;;;;;
2021/04/30 11:26:12;;;;;;;0;0;;;;;;;;;;;;;
2021/04/30 11:28:37;;;;;;;0.1;0;;;;;;;;;;;;;
2021/04/30 11:31:03;;;;;;;0.2;0.2;;;;;;;;;;;;;
2021/04/30 11:33:28;;;;;;;0.1;0.1;;;;;;;;;;;;;
2021/04/30 11:35:53;;;;;;;0.3;0.1;;;;;;;;;;;;;
2021/04/30 11:38:18;;;;;;;0.1;0.1;;;;;;;;;;;;;
2021/04/30 11:40:43;;;;;;;0;0;;;;;;;;;;;;;
2021/04/30 11:43:08;;;;;;;0.3;0.2;;;;;;;;;;;;;
2021/04/30 11:45:33;;;;;;;0.3;0.2;;;;;;;;;;;;;
2021/04/30 11:47:59;;;;;;;0.1;0.1;;;;;;;;;;;;;
2021/04/30 11:50:23;;;;;;;0.1;0.1;;;;;;;;;;;;;
2021/04/30 11:52:49;;;;;;;0.2;0.2;;;;;;;;;;;;;
2021/04/30 11:55:14;;;;;;;0.2;0.2;;;;;;;;;;;;;
2021/04/30 11:57:56;;;;;;;0;0;;;;;;;;;;;;;
2021/04/30 12:00:15;;;;;;;0.1;0.1;;;;;;;;;;;;;
2021/04/30 12:02:41;;;;;;;0;0;;;;;;;;;;;;;
2021/04/30 12:05:06;;;;;;;0.6;0.3;;;;;;;;;;;;;
2021/04/30 12:07:34;;;;;;;0.4;0.2;;;;;;;;;;;;;
2021/04/30 12:09:56;;;;;;;0.2;0.1;;;;;;;;;;;;;
2021/04/30 12:12:23;;;;;;;0.1;0.1;;;;;;;;;;;;;
2021/04/30 12:14:48;;;;;;;0.7;0.3;;;;;;;;;;;;;
2021/04/30 12:17:15;;;;;;;0.2;0.1;;;;;;;;;;;;;
2021/04/30 12:19:40;;;;;;;0.1;0.1;;;;;;;;;;;;;
2021/04/30 12:22:06;;;;;;;0.7;0.2;;;;;;;;;;;;;
2021/04/30 12:24:31;;;;;;;0.1;0.1;;;;;;;;;;;;;
2021/04/30 12:26:56;;;;;;;0.1;0.1;;;;;;;;;;;;;
2021/04/30 12:29:22;;;;;;;0.1;0.1;;;;;;;;;;;;;
2021/04/30 12:31:47;;;;;;;3;0.6;;;;;;;;;;;;;
2021/04/30 12:34:13;;;;;;;0.3;0.2;;;;;;;;;;;;;
2021/04/30 12:36:38;;;;;;;0.2;0.2;;;;;;;;;;;;;
2021/04/30 12:39:04;;;;;;;0.2;0.1;;;;;;;;;;;;;
2021/04/30 12:41:29;;;;;;;0.1;0.1;;;;;;;;;;;;;
2021/04/30 12:43:55;;;;;;;0.2;0.2;;;;;;;;;;;;;
2021/04/30 12:46:21;;;;;;;0.2;0.1;;;;;;;;;;;;;
2021/04/30 12:48:45;;;;;;;0.9;0.2;;;;;;;;;;;;;
2021/04/30 12:51:12;;;;;;;0.4;0.3;;;;;;;;;;;;;
2021/04/30 12:53:37;;;;;;;0.5;0.2;;;;;;;;;;;;;
2021/04/30 12:56:03;;;;;;;0.7;0.3;;;;;;;;;;;;;
2021/04/30 12:58:29;;;;;;;0.2;0.2;;;;;;;;;;;;;
2021/04/30 13:00:54;;;;;;;0.5;0.3;;;;;;;;;;;;;
2021/04/30 13:03:19;;;;;;;0.6;0.3;;;;;;;;;;;;;
2021/04/30 13:05:44;;;;;;;0.1;0.1;;;;;;;;;;;;;
2021/04/30 13:08:09;;;;;;;0;0;;;;;;;;;;;;;
2021/04/30 13:10:34;;;;;;;0.2;0.2;;;;;;;;;;;;;
2021/04/30 13:12:59;;;;;;;0.2;0.2;;;;;;;;;;;;;
2021/04/30 13:15:24;;;;;;;2.1;0.5;;;;;;;;;;;;;
2021/04/30 13:17:51;;;;;;;0.3;0.2;;;;;;;;;;;;;
2021/04/30 13:20:16;;;;;;;0.2;0.1;;;;;;;;;;;;;
2021/04/30 13:22:43;;;;;;;0.2;0.2;;;;;;;;;;;;;
2021/04/30 13:25:08;;;;;;;0.2;0.2;;;;;;;;;;;;;
2021/04/30 13:27:33;;;;;;;0.1;0;;;;;;;;;;;;;
2021/04/30 13:29:58;;;;;;;0.3;0.1;;;;;;;;;;;;;
2021/04/30 13:32:23;;;;;;;0;0;;;;;;;;;;;;;
2021/04/30 13:34:48;;;;;;;2.9;0.6;;;;;;;;;;;;;
2021/04/30 13:37:14;;;;;;;0.1;0.1;;;;;;;;;;;;;
2021/04/30 13:39:39;;;;;;;0.2;0.1;;;;;;;;;;;;;
2021/04/30 13:42:04;;;;;;;0.1;0.1;;;;;;;;;;;;;
2021/04/30 13:44:29;;;;;;;2.5;0.2;;;;;;;;;;;;;
2021/04/30 13:46:54;;;;;;;0;0;;;;;;;;;;;;;
2021/04/30 13:49:19;;;;;;;0.5;0.3;;;;;;;;;;;;;
2021/04/30 13:51:44;;;;;;;0.2;0.2;;;;;;;;;;;;;
2021/04/30 13:54:09;;;;;;;0.3;0.3;;;;;;;;;;;;;
2021/04/30 13:56:34;;;;;;;0.1;0.1;;;;;;;;;;;;;
2021/04/30 13:59:03;;;;;;;0;0;;;;;;;;;;;;;
2021/04/30 14:01:25;;;;;;;0.2;0.2;;;;;;;;;;;;;
2021/04/30 14:03:50;;;;;;;0.4;0.2;;;;;;;;;;;;;
2021/04/30 14:06:15;;;;;;;0.1;0.1;;;;;;;;;;;;;
2021/04/30 14:08:57;;;;;;;0.5;0.1;;;;;;;;;;;;;
2021/04/30 14:11:22;;;;;;;0.6;0.2;;;;;;;;;;;;;
2021/04/30 14:13:47;;;;;;;1.1;0.2;;;;;;;;;;;;;
2021/04/30 14:16:14;;;;;;;0.1;0.1;;;;;;;;;;;;;
2021/04/30 14:18:39;;;;;;;0.1;0;;;;;;;;;;;;;
2021/04/30 14:21:04;;;;;;;0.1;0.1;;;;;;;;;;;;;
2021/04/30 14:23:36;;;;;;;0.1;0.1;;;;;;;;;;;;;
2021/04/30 14:25:54;;;;;;;0;0;;;;;;;;;;;;;
2021/04/30 14:28:20;;;;;;;0.1;0.1;;;;;;;;;;;;;
2021/04/30 14:30:46;;;;;;;1.8;0.1;;;;;;;;;;;;;
2021/04/30 14:33:12;;;;;;;0;0;;;;;;;;;;;;;
2021/04/30 14:35:37;;;;;;;0.2;0.1;;;;;;;;;;;;;
2021/04/30 14:38:02;;;;;;;0.1;0.1;;;;;;;;;;;;;
2021/04/30 14:40:27;;;;;;;0.2;0.2;;;;;;;;;;;;;
2021/04/30 14:42:54;;;;;;;0;0;;;;;;;;;;;;;
2021/04/30 14:45:19;;;;;;;0.1;0.1;;;;;;;;;;;;;
2021/04/30 14:47:46;;;;;;;0.3;0.2;;;;;;;;;;;;;
2021/04/30 14:50:11;;;;;;;0;0;;;;;;;;;;;;;
2021/04/30 14:52:37;;;;;;;0.2;0.2;;;;;;;;;;;;;
2021/04/30 14:55:02;;;;;;;0.3;0.3;;;;;;;;;;;;;
2021/04/30 14:57:27;;;;;;;6.4;0.4;;;;;;;;;;;;;
2021/04/30 14:59:53;;;;;;;0.2;0.2;;;;;;;;;;;;;
2021/04/30 15:02:17;;;;;;;0.2;0.1;;;;;;;;;;;;;
2021/04/30 15:04:42;;;;;;;0.7;0.1;;;;;;;;;;;;;
2021/04/30 15:07:07;;;;;;;0.5;0.1;;;;;;;;;;;;;
2021/04/30 15:09:33;;;;;;;0;0;;;;;;;;;;;;;
2021/04/30 15:11:58;;;;;;;0.1;0.1;;;;;;;;;;;;;
2021/04/30 15:14:24;;;;;;;0.7;0.2;;;;;;;;;;;;;
2021/04/30 15:16:49;;;;;;;0.1;0.1;;;;;;;;;;;;;
2021/04/30 15:19:15;;;;;;;0.1;0.1;;;;;;;;;;;;;
2021/04/30 15:21:40;;;;;;;0;0;;;;;;;;;;;;;
2021/04/30 15:24:05;;;;;;;0.1;0.1;;;;;;;;;;;;;
2021/04/30 15:26:30;;;;;;;0.2;0.2;;;;;;;;;;;;;
2021/04/30 15:28:56;;;;;;;0;0;;;;;;;;;;;;;
2021/04/30 15:31:21;;;;;;;0;0;;;;;;;;;;;;;
2021/04/30 15:33:49;;;;;;;0.3;0.3;;;;;;;;;;;;;
2021/04/30 15:36:11;;;;;;;0.2;0.2;;;;;;;;;;;;;
2021/04/30 15:38:36;;;;;;;0.3;0.2;;;;;;;;;;;;;
2021/04/30 15:41:02;;;;;;;0.9;0.4;;;;;;;;;;;;;
2021/04/30 15:43:27;;;;;;;1.8;0.5;;;;;;;;;;;;;
2021/04/30 15:45:57;;;;;;;0.2;0.2;;;;;;;;;;;;;
2021/04/30 15:48:16;;;;;;;0.2;0.2;;;;;;;;;;;;;
2021/04/30 15:50:41;;;;;;;0.1;0.1;;;;;;;;;;;;;
2021/04/30 15:53:06;;;;;;;0.1;0.1;;;;;;;;;;;;;
2021/04/30 15:55:32;;;;;;;0.3;0.1;;;;;;;;;;;;;
2021/04/30 15:57:57;;;;;;;0.3;0.2;;;;;;;;;;;;;
2021/04/30 16:00:22;;;;;;;0.5;0.4;;;;;;;;;;;;;
2021/04/30 16:02:48;;;;;;;0.3;0.2;;;;;;;;;;;;;
2021/04/30 16:05:14;;;;;;;0.5;0.4;;;;;;;;;;;;;
2021/04/30 16:07:39;;;;;;;0.1;0.1;;;;;;;;;;;;;
2021/04/30 16:10:06;;;;;;;0.4;0.4;;;;;;;;;;;;;
2021/04/30 16:12:31;;;;;;;0.4;0.3;;;;;;;;;;;;;
2021/04/30 16:14:56;;;;;;;0.3;0.3;;;;;;;;;;;;;
2021/04/30 16:17:21;;;;;;;0.5;0.3;;;;;;;;;;;;;
2021/04/30 16:19:47;;;;;;;0.4;0.3;;;;;;;;;;;;;
2021/04/30 16:22:14;;;;;;;0.2;0.2;;;;;;;;;;;;;
2021/04/30 16:24:38;;;;;;;0.4;0.4;;;;;;;;;;;;;
2021/04/30 16:27:03;;;;;;;0.2;0.2;;;;;;;;;;;;;
2021/04/30 16:29:28;;;;;;;2.3;0.7;;;;;;;;;;;;;
2021/04/30 16:31:53;;;;;;;0.5;0.4;;;;;;;;;;;;;
2021/04/30 16:34:19;;;;;;;1;0.6;;;;;;;;;;;;;
2021/04/30 16:36:44;;;;;;;0.6;0.6;;;;;;;;;;;;;
2021/04/30 16:39:09;;;;;;;0.9;0.6;;;;;;;;;;;;;
2021/04/30 16:41:34;;;;;;;0.7;0.7;;;;;;;;;;;;;
2021/04/30 16:43:59;;;;;;;0.5;0.5;;;;;;;;;;;;;
2021/04/30 16:46:25;;;;;;;1.2;0.9;;;;;;;;;;;;;
2021/04/30 16:48:50;;;;;;;2.4;1;;;;;;;;;;;;;
2021/04/30 16:51:16;;;;;;;1.8;0.7;;;;;;;;;;;;;
2021/04/30 16:53:41;;;;;;;1.4;1;;;;;;;;;;;;;
2021/04/30 16:56:07;;;;;;;2.9;0.9;;;;;;;;;;;;;
2021/04/30 16:58:32;;;;;;;1.1;1;;;;;;;;;;;;;
2021/04/30 17:00:58;;;;;;;1.9;1.3;;;;;;;;;;;;;
2021/04/30 17:03:23;;;;;;;1;0.9;;;;;;;;;;;;;
2021/04/30 17:05:52;;;;;;;0.8;0.8;;;;;;;;;;;;;
2021/04/30 17:08:15;;;;;;;1;0.6;;;;;;;;;;;;;
2021/04/30 17:10:40;;;;;;;2;1.2;;;;;;;;;;;;;
2021/04/30 17:13:05;;;;;;;2.7;1.4;;;;;;;;;;;;;
2021/04/30 17:15:30;;;;;;;3.6;1.8;;;;;;;;;;;;;
2021/04/30 17:17:55;;;;;;;5.2;2;;;;;;;;;;;;;
2021/04/30 17:20:20;;;;;;;2.7;2.2;;;;;;;;;;;;;
2021/04/30 17:22:46;;;;;;;2;1.7;;;;;;;;;;;;;
2021/04/30 17:25:11;;;;;;;3.9;1.8;;;;;;;;;;;;;
2021/04/30 17:27:36;;;;;;;2.3;1.8;;;;;;;;;;;;;
2021/04/30 17:30:03;;;;;;;2.3;1.9;;;;;;;;;;;;;
2021/04/30 17:32:26;;;;;;;2.6;2.1;;;;;;;;;;;;;
2021/04/30 17:34:51;;;;;;;3.2;2.3;;;;;;;;;;;;;
2021/04/30 17:37:17;;;;;;;1.9;1.6;;;;;;;;;;;;;
2021/04/30 17:39:42;;;;;;;2.9;2.4;;;;;;;;;;;;;
2021/04/30 17:42:08;;;;;;;3.3;2.8;;;;;;;;;;;;;
2021/04/30 17:44:34;;;;;;;5.3;3.3;;;;;;;;;;;;;
2021/04/30 17:46:59;;;;;;;5.6;3.3;;;;;;;;;;;;;
2021/04/30 17:49:24;;;;;;;5.1;2.5;;;;;;;;;;;;;
2021/04/30 17:51:50;;;;;;;5.3;3.2;;;;;;;;;;;;;
2021/04/30 17:54:16;;;;;;;7.1;3.8;;;;;;;;;;;;;
2021/04/30 17:56:42;;;;;;;4.6;3.1;;;;;;;;;;;;;
2021/04/30 17:59:07;;;;;;;4.2;2.9;;;;;;;;;;;;;
2021/04/30 18:01:33;;;;;;;6.7;3.6;;;;;;;;;;;;;
2021/04/30 18:03:57;;;;;;;6.6;2.8;;;;;;;;;;;;;
2021/04/30 18:06:22;;;;;;;3.3;3;;;;;;;;;;;;;
2021/04/30 18:08:48;;;;;;;5.8;3.7;;;;;;;;;;;;;
2021/04/30 18:11:13;;;;;;;7;3.4;;;;;;;;;;;;;
2021/04/30 18:13:39;;;;;;;7.8;3.7;;;;;;;;;;;;;
2021/04/30 18:16:04;;;;;;;4.6;3.3;;;;;;;;;;;;;
2021/04/30 18:18:30;;;;;;;4.9;3.5;;;;;;;;;;;;;
2021/04/30 18:20:55;;;;;;;5.5;3.6;;;;;;;;;;;;;
2021/04/30 18:23:20;;;;;;;6.4;4.5;;;;;;;;;;;;;
2021/04/30 18:25:46;;;;;;;7.1;5.1;;;;;;;;;;;;;
2021/04/30 18:28:10;;;;;;;9.1;4.7;;;;;;;;;;;;;
2021/04/30 18:30:35;;;;;;;9;4.9;;;;;;;;;;;;;
2021/04/30 18:33:01;;;;;;;10;5.7;;;;;;;;;;;;;
2021/04/30 18:35:26;;;;;;;7.3;5.2;;;;;;;;;;;;;
2021/04/30 18:37:52;;;;;;;7.1;5.3;;;;;;;;;;;;;
2021/04/30 18:40:17;;;;;;;9.3;4.4;;;;;;;;;;;;;
2021/04/30 18:42:43;;;;;;;12.4;5.9;;;;;;;;;;;;;
2021/04/30 18:45:08;;;;;;;8.5;5.5;;;;;;;;;;;;;
2021/04/30 18:47:35;;;;;;;11;6.3;;;;;;;;;;;;;
2021/04/30 18:50:00;;;;;;;10.3;5.6;;;;;;;;;;;;;
2021/04/30 18:52:25;;;;;;;8.8;5.2;;;;;;;;;;;;;
2021/04/30 18:54:51;;;;;;;7.3;5;;;;;;;;;;;;;
2021/04/30 18:57:17;;;;;;;13.5;6.8;;;;;;;;;;;;;
2021/04/30 18:59:42;;;;;;;7.9;5.8;;;;;;;;;;;;;
2021/04/30 19:02:09;;;;;;;8.3;5.7;;;;;;;;;;;;;
2021/04/30 19:04:36;;;;;;;9;6.7;;;;;;;;;;;;;
2021/04/30 19:07:01;;;;;;;9.1;6.4;;;;;;;;;;;;;
2021/04/30 19:09:24;;;;;;;13.2;6.8;;;;;;;;;;;;;
2021/04/30 19:11:49;;;;;;;10.8;5.8;;;;;;;;;;;;;
2021/04/30 19:14:14;;;;;;;9.2;5.9;;;;;;;;;;;;;
2021/04/30 19:16:39;;;;;;;11.7;6.3;;;;;;;;;;;;;
2021/04/30 19:19:09;;;;;;;10.1;5.9;;;;;;;;;;;;;
2021/04/30 19:21:30;;;;;;;9.1;5.9;;;;;;;;;;;;;
2021/04/30 19:23:55;;;;;;;10.4;5.6;;;;;;;;;;;;;
2021/04/30 19:26:20;;;;;;;13.5;6.3;;;;;;;;;;;;;
2021/04/30 19:28:45;;;;;;;11.3;6.3;;;;;;;;;;;;;
2021/04/30 19:31:11;;;;;;;9;6;;;;;;;;;;;;;
2021/04/30 19:33:35;;;;;;;12.3;5.9;;;;;;;;;;;;;
2021/04/30 19:36:03;;;;;;;9.1;5.5;;;;;;;;;;;;;
2021/04/30 19:38:26;;;;;;;11.8;5.9;;;;;;;;;;;;;
2021/04/30 19:40:51;;;;;;;7.8;6;;;;;;;;;;;;;
2021/04/30 19:43:16;;;;;;;7.7;5.7;;;;;;;;;;;;;
2021/04/30 19:45:42;;;;;;;9.8;5.9;;;;;;;;;;;;;
2021/04/30 19:48:07;;;;;;;8.8;5.3;;;;;;;;;;;;;
2021/04/30 19:50:32;;;;;;;10.6;5.5;;;;;;;;;;;;;
2021/04/30 19:52:57;;;;;;;9.7;6.2;;;;;;;;;;;;;